Time;durP1;ratioP1;P1;durP2;ratioP2;P2;SDS_P1;SDS_P2;PMS_P1;PMS_P2;Temp;Humidity;BMP_temperature;BMP_pressure;BME280_temperature;BME280_humidity;BME280_pressure;Samples;Min_cycle;Max_cycle;Signal;HPM_P1;HPM_P2
2021/11/17 02:26:28;;;;;;;7.82;5.03;;;5.30;99.90;;;;;;5051821;28;20200;-70
2021/11/17 02:34:06;;;;;;;6.75;4.30;;;5.30;99.90;;;;;;5042123;28;20243;-70
2021/11/17 02:36:49;;;;;;;6.78;5.03;;;5.30;99.90;;;;;;5048914;28;20225;-70
2021/11/17 02:39:28;;;;;;;6.45;4.72;;;5.30;99.90;;;;;;5052052;28;20228;-70
2021/11/17 02:42:16;;;;;;;5.22;4.40;;;5.30;99.90;;;;;;5051352;28;20212;-70
2021/11/17 02:45:01;;;;;;;6.57;4.90;;;5.30;99.90;;;;;;5051307;28;20669;-70
2021/11/17 02:47:46;;;;;;;6.43;4.63;;;5.30;99.90;;;;;;5104611;22;20212;-96
2021/11/17 02:50:27;;;;;;;6.97;5.25;;;5.30;99.90;;;;;;5098927;28;20187;-95
2021/11/17 02:53:10;;;;;;;6.63;4.60;;;5.30;99.90;;;;;;5098554;28;20177;-96
2021/11/17 02:55:52;;;;;;;6.47;4.50;;;5.30;99.90;;;;;;5097360;28;20255;-94
2021/11/17 02:58:44;;;;;;;6.88;4.95;;;5.30;99.90;;;;;;5097519;28;20230;-96
2021/11/17 03:01:47;;;;;;;5.63;4.70;;;5.30;99.90;;;;;;5096524;28;20232;-96
2021/11/17 03:04:40;;;;;;;6.18;4.72;;;5.30;99.90;;;;;;5093670;28;20196;-96
2021/11/17 03:07:32;;;;;;;6.55;4.93;;;5.30;99.90;;;;;;5090575;28;20227;-95
2021/11/17 03:10:31;;;;;;;6.95;5.78;;;5.30;99.90;;;;;;5091146;28;20228;-95
2021/11/17 03:13:22;;;;;;;6.53;4.57;;;5.20;99.90;;;;;;5097392;28;20248;-95
2021/11/17 03:16:09;;;;;;;6.65;4.95;;;5.30;99.90;;;;;;5092526;28;20205;-96
2021/11/17 03:18:49;;;;;;;6.45;5.38;;;5.20;99.90;;;;;;5092449;28;20250;-96
2021/11/17 03:21:28;;;;;;;9.73;5.32;;;5.20;99.90;;;;;;5091562;28;20204;-96
2021/11/17 03:24:09;;;;;;;6.88;5.32;;;5.30;99.90;;;;;;5092605;28;20207;-95
2021/11/17 03:26:57;;;;;;;8.63;5.82;;;5.30;99.90;;;;;;5092672;28;20224;-96
2021/11/17 03:29:47;;;;;;;6.80;5.00;;;5.30;99.90;;;;;;5092328;28;20268;-96
2021/11/17 03:32:32;;;;;;;7.47;5.45;;;5.30;99.90;;;;;;5091978;28;20226;-94
2021/11/17 03:35:26;;;;;;;8.93;5.13;;;5.30;99.90;;;;;;5093717;28;20260;-95
2021/11/17 03:38:17;;;;;;;7.40;5.18;;;5.30;99.90;;;;;;5092234;28;20224;-96
2021/11/17 03:41:27;;;;;;;7.00;5.20;;;5.30;99.90;;;;;;5094232;28;20173;-96
2021/11/17 03:44:25;;;;;;;5.28;4.45;;;5.30;99.90;;;;;;5094496;28;20208;-96
2021/11/17 03:47:18;;;;;;;7.22;5.03;;;5.30;99.90;;;;;;5093953;28;20224;-95
2021/11/17 03:50:00;;;;;;;8.23;5.75;;;5.30;99.90;;;;;;5090678;28;20235;-96
2021/11/17 03:52:40;;;;;;;7.20;6.00;;;5.30;99.90;;;;;;5090336;28;20201;-95
2021/11/17 03:55:21;;;;;;;8.32;5.30;;;5.20;99.90;;;;;;5093277;28;20188;-96
2021/11/17 03:58:01;;;;;;;6.57;4.80;;;5.20;99.90;;;;;;5097958;28;20280;-95
2021/11/17 04:00:44;;;;;;;8.25;6.47;;;5.20;99.90;;;;;;5097845;28;20227;-94
2021/11/17 04:03:25;;;;;;;7.50;5.57;;;5.20;99.90;;;;;;5097449;28;20201;-96
2021/11/17 04:06:05;;;;;;;7.65;5.50;;;5.20;99.90;;;;;;5097867;28;20180;-96
2021/11/17 04:08:53;;;;;;;6.93;5.20;;;5.20;99.90;;;;;;5097779;28;20180;-95
2021/11/17 04:11:36;;;;;;;8.05;5.50;;;5.20;99.90;;;;;;5097559;28;20191;-95
2021/11/17 04:14:13;;;;;;;8.02;5.60;;;5.20;99.90;;;;;;5097789;28;20186;-96
2021/11/17 04:16:53;;;;;;;8.10;6.03;;;5.10;99.90;;;;;;5095807;28;20446;-95
2021/11/17 04:19:31;;;;;;;6.63;5.30;;;5.20;99.90;;;;;;5093237;28;20214;-94
2021/11/17 04:22:16;;;;;;;6.43;5.30;;;5.20;99.90;;;;;;5097742;28;20458;-95
2021/11/17 04:24:57;;;;;;;8.23;5.47;;;5.10;99.90;;;;;;5097405;28;20192;-95
2021/11/17 04:27:42;;;;;;;7.30;5.53;;;5.10;99.90;;;;;;5096155;28;20247;-94
2021/11/17 04:30:41;;;;;;;7.88;5.13;;;5.10;99.90;;;;;;5094841;28;20196;-96
2021/11/17 04:33:51;;;;;;;6.95;5.15;;;5.20;99.90;;;;;;5063433;28;20287;-94
2021/11/17 04:36:32;;;;;;;9.48;6.25;;;5.20;99.90;;;;;;5075785;28;20232;-94
2021/11/17 04:40:10;;;;;;;6.28;5.05;;;5.10;99.90;;;;;;5064761;28;20217;-95
2021/11/17 04:43:06;;;;;;;6.28;5.03;;;5.10;99.90;;;;;;5068057;28;20261;-94
2021/11/17 04:46:02;;;;;;;5.88;4.85;;;5.10;99.90;;;;;;5065195;28;20205;-95
2021/11/17 04:49:15;;;;;;;6.30;4.93;;;5.10;99.90;;;;;;5084520;28;20256;-95
2021/11/17 04:52:21;;;;;;;6.82;4.60;;;5.10;99.90;;;;;;5088039;28;20287;-96
2021/11/17 04:55:02;;;;;;;5.28;4.45;;;5.10;99.90;;;;;;5091080;22;20192;-67
2021/11/17 04:57:45;;;;;;;7.50;5.35;;;5.10;99.90;;;;;;5011056;28;20714;-66
2021/11/17 05:00:46;;;;;;;8.48;5.57;;;5.20;99.90;;;;;;5020127;28;20226;-66
2021/11/17 05:03:25;;;;;;;6.20;4.45;;;5.10;99.90;;;;;;5022227;28;20225;-67
2021/11/17 05:06:10;;;;;;;5.93;5.00;;;5.10;99.90;;;;;;5022918;28;20260;-66
2021/11/17 05:08:44;;;;;;;7.10;5.53;;;5.10;99.90;;;;;;5023421;28;20190;-67
2021/11/17 05:11:24;;;;;;;5.95;4.60;;;5.20;99.90;;;;;;5023392;28;20556;-67
2021/11/17 05:13:59;;;;;;;5.75;4.78;;;5.20;99.90;;;;;;5022159;28;20194;-67
2021/11/17 05:16:37;;;;;;;7.10;4.65;;;5.20;99.90;;;;;;5020745;28;20221;-67
2021/11/17 05:19:12;;;;;;;6.85;5.35;;;5.20;99.90;;;;;;5020170;28;20214;-67
2021/11/17 05:21:54;;;;;;;5.38;4.55;;;5.20;99.90;;;;;;5018678;28;20211;-68
2021/11/17 05:24:34;;;;;;;6.65;5.55;;;5.20;99.90;;;;;;5018795;28;20462;-67
2021/11/17 05:27:15;;;;;;;8.98;4.95;;;5.20;99.90;;;;;;5023557;28;20240;-67
2021/11/17 05:29:55;;;;;;;6.20;4.47;;;5.30;99.90;;;;;;5018608;28;20201;-69
2021/11/17 05:32:38;;;;;;;5.50;4.95;;;5.30;99.90;;;;;;5013104;28;20673;-69
2021/11/17 05:35:21;;;;;;;5.60;4.72;;;5.30;99.90;;;;;;5013851;28;20206;-68
2021/11/17 05:37:58;;;;;;;7.28;5.05;;;5.30;99.90;;;;;;5013289;28;20245;-68
2021/11/17 05:40:42;;;;;;;5.78;4.65;;;5.20;99.90;;;;;;5013741;28;20222;-68
2021/11/17 05:43:22;;;;;;;7.18;5.32;;;5.20;99.90;;;;;;5013130;28;20253;-69
2021/11/17 05:46:01;;;;;;;5.30;4.22;;;5.20;99.90;;;;;;5013372;28;20682;-68
2021/11/17 05:48:39;;;;;;;6.40;4.75;;;5.20;99.90;;;;;;5013298;28;20207;-68
2021/11/17 05:51:28;;;;;;;5.07;4.25;;;5.20;99.90;;;;;;5013208;28;20198;-68
2021/11/17 05:54:13;;;;;;;6.38;5.05;;;5.20;99.90;;;;;;5013076;28;20670;-68
2021/11/17 05:56:58;;;;;;;5.80;4.85;;;5.20;99.90;;;;;;5012877;28;20745;-68
2021/11/17 05:59:39;;;;;;;4.55;3.90;;;5.20;99.90;;;;;;5013445;28;20218;-67
2021/11/17 06:02:26;;;;;;;6.80;4.40;;;5.20;99.90;;;;;;5012999;28;20206;-68
2021/11/17 06:04:53;;;;;;;7.50;5.45;;;5.20;99.90;;;;;;5012859;28;20269;-68
2021/11/17 06:07:19;;;;;;;7.50;5.20;;;5.20;99.90;;;;;;5012800;28;20284;-68
2021/11/17 06:09:46;;;;;;;6.00;4.70;;;5.20;99.90;;;;;;5012889;28;20202;-68
2021/11/17 06:12:16;;;;;;;5.70;3.90;;;5.20;99.90;;;;;;5012481;28;20209;-68
2021/11/17 06:14:46;;;;;;;5.80;4.53;;;5.20;99.90;;;;;;5012687;28;20203;-68
2021/11/17 06:17:17;;;;;;;7.57;5.63;;;5.20;99.90;;;;;;5012618;28;20229;-68
2021/11/17 06:19:46;;;;;;;7.38;5.00;;;5.20;99.90;;;;;;5012862;28;20828;-68
2021/11/17 06:22:14;;;;;;;5.68;4.65;;;5.20;99.90;;;;;;5012585;28;20789;-68
2021/11/17 06:24:41;;;;;;;6.30;4.78;;;5.20;99.90;;;;;;5012332;28;20553;-68
2021/11/17 06:27:15;;;;;;;5.82;4.90;;;5.20;99.90;;;;;;5012589;28;20710;-68
2021/11/17 06:29:45;;;;;;;5.38;4.32;;;5.30;99.90;;;;;;5012084;28;20209;-68
2021/11/17 06:32:13;;;;;;;7.32;4.75;;;5.30;99.90;;;;;;5012432;28;20207;-68
2021/11/17 06:34:42;;;;;;;6.20;4.95;;;5.30;99.90;;;;;;5012296;28;20229;-68
2021/11/17 06:37:10;;;;;;;5.65;4.97;;;5.30;99.90;;;;;;5012517;28;20592;-68
2021/11/17 06:39:38;;;;;;;5.15;4.65;;;5.30;99.90;;;;;;5012356;28;20628;-68
2021/11/17 06:42:07;;;;;;;7.47;4.82;;;5.20;99.90;;;;;;5011781;28;20206;-67
2021/11/17 06:44:35;;;;;;;6.80;4.70;;;5.20;99.90;;;;;;5012255;28;20206;-66
2021/11/17 06:47:02;;;;;;;11.68;5.63;;;5.30;99.90;;;;;;5011938;28;20572;-67
2021/11/17 06:49:28;;;;;;;6.93;5.78;;;5.30;99.90;;;;;;5012503;28;20198;-67
2021/11/17 06:51:56;;;;;;;5.60;5.10;;;5.30;99.90;;;;;;5011343;28;20694;-67
2021/11/17 06:54:22;;;;;;;8.13;6.03;;;5.30;99.90;;;;;;5012356;28;20260;-67
2021/11/17 06:56:49;;;;;;;8.15;5.65;;;5.40;99.90;;;;;;5011723;28;20634;-67
2021/11/17 06:59:16;;;;;;;9.23;5.40;;;5.30;99.90;;;;;;5011847;28;20202;-67
2021/11/17 07:01:44;;;;;;;7.63;5.45;;;5.40;99.90;;;;;;5011594;28;20210;-67
2021/11/17 07:04:11;;;;;;;5.82;4.68;;;5.30;99.90;;;;;;5011632;28;20203;-67
2021/11/17 07:06:39;;;;;;;5.20;4.40;;;5.30;99.90;;;;;;5012061;28;20226;-67
2021/11/17 07:09:08;;;;;;;6.50;5.47;;;5.30;99.90;;;;;;5011611;28;20241;-67
2021/11/17 07:11:37;;;;;;;6.47;4.63;;;5.30;99.90;;;;;;5011241;28;20202;-67
2021/11/17 07:14:05;;;;;;;5.88;4.60;;;5.30;99.90;;;;;;5011471;28;20584;-67
2021/11/17 07:16:32;;;;;;;7.55;4.30;;;5.30;99.90;;;;;;5003291;28;20269;-67
2021/11/17 07:19:01;;;;;;;9.13;5.32;;;5.30;99.90;;;;;;5011627;28;20226;-66
2021/11/17 07:21:28;;;;;;;6.20;4.88;;;5.30;99.90;;;;;;5010387;28;20717;-67
2021/11/17 07:23:54;;;;;;;5.93;5.30;;;5.30;99.90;;;;;;5011754;28;20206;-67
2021/11/17 07:26:22;;;;;;;7.70;5.10;;;5.30;99.90;;;;;;5011116;28;20222;-67
2021/11/17 07:28:48;;;;;;;9.32;5.75;;;5.30;99.90;;;;;;5011731;28;20209;-67
2021/11/17 07:31:15;;;;;;;8.13;4.78;;;5.30;99.90;;;;;;5010729;28;20203;-66
2021/11/17 07:33:42;;;;;;;7.93;5.32;;;5.30;99.90;;;;;;5011528;28;20700;-67
2021/11/17 07:36:10;;;;;;;6.60;4.65;;;5.30;99.90;;;;;;5011582;28;20590;-67
2021/11/17 07:38:37;;;;;;;8.82;5.28;;;5.40;99.90;;;;;;5011347;28;20248;-68
2021/11/17 07:41:05;;;;;;;7.03;4.70;;;5.40;99.90;;;;;;5010617;28;20741;-67
2021/11/17 07:43:32;;;;;;;6.28;4.90;;;5.40;99.90;;;;;;5011061;28;20612;-67
2021/11/17 07:45:59;;;;;;;5.38;4.10;;;5.50;99.90;;;;;;5011238;28;20293;-67
2021/11/17 07:48:28;;;;;;;5.85;3.90;;;5.50;99.90;;;;;;5010975;28;20578;-67
2021/11/17 07:50:56;;;;;;;5.57;4.30;;;5.60;99.90;;;;;;5010902;28;20581;-67
2021/11/17 07:53:25;;;;;;;5.65;4.38;;;5.60;99.90;;;;;;5011119;28;20210;-67
2021/11/17 07:55:54;;;;;;;5.45;4.13;;;5.70;99.90;;;;;;5010867;28;20264;-67
2021/11/17 07:58:23;;;;;;;5.50;3.85;;;5.60;99.90;;;;;;5011075;28;20233;-67
2021/11/17 08:00:52;;;;;;;5.60;3.78;;;5.60;99.90;;;;;;5010597;28;20261;-67
2021/11/17 08:03:21;;;;;;;5.22;4.07;;;5.60;99.90;;;;;;5020204;28;20201;-66
2021/11/17 08:05:50;;;;;;;6.80;3.70;;;5.60;99.90;;;;;;5030665;28;20201;-67
2021/11/17 08:08:19;;;;;;;4.68;3.40;;;5.60;99.90;;;;;;5030594;28;20267;-67
2021/11/17 08:10:49;;;;;;;5.75;4.30;;;5.50;99.90;;;;;;5013650;28;20217;-67
2021/11/17 08:13:16;;;;;;;4.10;3.40;;;5.50;99.90;;;;;;5007933;28;20205;-66
2021/11/17 08:15:44;;;;;;;6.05;4.00;;;5.50;99.90;;;;;;5010498;28;20685;-67
2021/11/17 08:18:11;;;;;;;4.95;4.13;;;5.50;99.90;;;;;;5009288;28;20228;-68
2021/11/17 08:20:38;;;;;;;5.70;4.40;;;5.50;99.90;;;;;;5010046;28;20317;-67
2021/11/17 08:23:06;;;;;;;6.00;4.45;;;5.50;99.90;;;;;;5009508;28;20199;-68
2021/11/17 08:25:35;;;;;;;4.50;3.20;;;5.50;99.90;;;;;;5009678;28;20206;-68
2021/11/17 08:28:05;;;;;;;4.85;3.83;;;5.50;99.90;;;;;;5009795;28;20226;-68
2021/11/17 08:30:34;;;;;;;7.60;4.20;;;5.50;99.90;;;;;;5009539;28;20205;-68
2021/11/17 08:33:08;;;;;;;4.90;3.40;;;5.60;99.90;;;;;;5010020;28;20206;-68
2021/11/17 08:35:36;;;;;;;4.68;3.30;;;5.60;99.90;;;;;;5013606;28;20198;-67
2021/11/17 08:38:04;;;;;;;5.38;3.50;;;5.60;99.90;;;;;;5014238;28;20217;-68
2021/11/17 08:40:34;;;;;;;4.55;3.72;;;5.60;99.90;;;;;;5013324;28;20248;-68
2021/11/17 08:43:01;;;;;;;4.70;3.35;;;5.60;99.90;;;;;;5013591;28;20210;-68
2021/11/17 08:45:29;;;;;;;4.05;3.22;;;5.70;99.90;;;;;;5013699;28;20222;-68
2021/11/17 08:47:57;;;;;;;4.38;3.45;;;5.70;99.90;;;;;;5013510;28;20313;-68
2021/11/17 08:50:27;;;;;;;5.00;3.00;;;5.70;99.90;;;;;;5013720;28;20658;-68
2021/11/17 08:52:55;;;;;;;3.92;2.55;;;5.80;99.90;;;;;;5013466;28;20206;-67
2021/11/17 08:55:24;;;;;;;4.55;3.00;;;5.80;99.90;;;;;;5013062;28;20682;-68
2021/11/17 08:57:51;;;;;;;3.30;3.00;;;5.70;99.90;;;;;;5013690;28;20237;-68
2021/11/17 09:00:20;;;;;;;4.15;3.10;;;5.70;99.90;;;;;;5013448;28;20214;-68
2021/11/17 09:02:50;;;;;;;3.63;3.13;;;5.70;99.90;;;;;;5012877;28;20214;-68
2021/11/17 09:05:20;;;;;;;3.42;3.10;;;5.60;99.90;;;;;;5013457;28;20566;-68
2021/11/17 09:07:48;;;;;;;3.88;3.13;;;5.60;99.90;;;;;;5013311;28;20329;-68
2021/11/17 09:10:17;;;;;;;3.85;3.28;;;5.60;99.90;;;;;;5013339;28;20194;-67
2021/11/17 09:12:46;;;;;;;6.10;3.00;;;5.60;99.90;;;;;;5012628;28;20576;-68
2021/11/17 09:15:13;;;;;;;3.70;3.22;;;5.60;99.90;;;;;;5013514;28;20238;-67
2021/11/17 09:17:41;;;;;;;3.80;2.97;;;5.60;99.90;;;;;;5008301;28;20306;-67
2021/11/17 09:20:10;;;;;;;4.40;3.20;;;5.60;99.90;;;;;;5011707;28;20209;-67
2021/11/17 09:22:37;;;;;;;4.78;3.13;;;5.60;99.90;;;;;;5010547;28;20202;-67
2021/11/17 09:25:06;;;;;;;3.42;2.90;;;5.60;99.90;;;;;;5010955;28;20213;-67
2021/11/17 09:27:33;;;;;;;4.00;3.03;;;5.60;99.90;;;;;;5010826;28;20597;-67
2021/11/17 09:30:01;;;;;;;5.95;2.88;;;5.50;99.90;;;;;;5011254;28;20215;-67
2021/11/17 09:32:31;;;;;;;4.05;2.78;;;5.50;99.90;;;;;;5009787;28;20221;-67
2021/11/17 09:34:59;;;;;;;2.67;2.40;;;5.50;99.90;;;;;;5012003;28;20618;-67
2021/11/17 09:37:28;;;;;;;4.25;2.60;;;5.50;99.90;;;;;;5012381;28;20229;-67
2021/11/17 09:39:56;;;;;;;2.83;2.33;;;5.50;99.90;;;;;;5012610;28;20297;-67
2021/11/17 09:42:23;;;;;;;2.60;1.92;;;5.40;99.90;;;;;;5011311;28;20199;-67
2021/11/17 09:44:52;;;;;;;2.75;2.15;;;5.40;99.90;;;;;;5012028;28;20195;-67
2021/11/17 09:47:23;;;;;;;2.47;2.28;;;5.40;99.90;;;;;;5012164;28;20694;-67
2021/11/17 09:49:53;;;;;;;2.92;1.95;;;5.40;99.90;;;;;;5012524;28;20198;-67
2021/11/17 09:52:24;;;;;;;2.47;2.25;;;5.40;99.90;;;;;;5011851;28;20202;-67
2021/11/17 09:54:56;;;;;;;3.13;2.55;;;5.30;99.90;;;;;;5011811;28;20229;-67
2021/11/17 09:57:26;;;;;;;3.30;2.40;;;5.30;99.90;;;;;;5012635;28;20228;-67
2021/11/17 10:00:01;;;;;;;3.50;1.67;;;5.30;99.90;;;;;;5012151;28;20615;-67
2021/11/17 10:02:34;;;;;;;3.78;2.17;;;5.30;99.90;;;;;;5011308;28;20222;-67
2021/11/17 10:05:05;;;;;;;2.53;2.10;;;5.30;99.90;;;;;;5012214;28;20210;-67
2021/11/17 10:11:01;;;;;;;3.67;2.10;;;5.30;99.90;;;;;;5012593;28;20787;-66
2021/11/17 10:13:25;;;;;;;2.75;2.13;;;5.30;99.90;;;;;;5012056;28;20261;-67
2021/11/17 10:15:55;;;;;;;2.50;2.00;;;5.30;99.90;;;;;;5011770;28;20206;-67
2021/11/17 10:18:38;;;;;;;3.55;2.30;;;5.30;99.90;;;;;;5012347;28;20617;-66
2021/11/17 10:21:09;;;;;;;2.88;2.58;;;5.30;99.90;;;;;;5008267;28;20690;-67
2021/11/17 10:23:52;;;;;;;2.60;2.40;;;5.30;99.90;;;;;;5012344;28;20290;-67
2021/11/17 10:26:21;;;;;;;3.42;2.58;;;5.40;99.90;;;;;;5011639;28;20317;-67
2021/11/17 10:28:52;;;;;;;2.90;2.67;;;5.40;99.90;;;;;;5011961;28;20699;-67
2021/11/17 10:31:22;;;;;;;3.40;2.45;;;5.40;99.90;;;;;;5011426;28;20226;-66
2021/11/17 10:34:12;;;;;;;2.95;2.63;;;5.40;99.90;;;;;;5011863;28;20207;-66
2021/11/17 10:36:53;;;;;;;3.08;2.78;;;5.50;99.90;;;;;;5011796;28;20223;-67
2021/11/17 10:39:23;;;;;;;4.80;3.20;;;5.60;99.90;;;;;;5009572;28;20593;-66
2021/11/17 10:41:56;;;;;;;3.70;2.85;;;5.60;99.90;;;;;;5011519;28;20229;-66
2021/11/17 10:44:38;;;;;;;3.17;2.70;;;5.60;99.90;;;;;;5011326;28;20296;-67
2021/11/17 10:47:18;;;;;;;2.85;2.35;;;5.60;99.90;;;;;;5010878;28;20234;-67
2021/11/17 10:49:47;;;;;;;2.70;2.40;;;5.70;99.90;;;;;;5008263;28;20206;-66
2021/11/17 10:52:21;;;;;;;2.90;2.10;;;5.60;99.90;;;;;;5010758;28;20662;-67
2021/11/17 10:54:50;;;;;;;2.65;2.15;;;5.60;99.90;;;;;;5011591;28;20678;-67
2021/11/17 10:57:21;;;;;;;2.90;2.25;;;5.80;99.90;;;;;;5010733;28;20226;-67
2021/11/17 10:59:48;;;;;;;2.38;2.17;;;5.80;99.90;;;;;;5011328;28;20210;-67
2021/11/17 11:02:16;;;;;;;2.15;1.95;;;5.90;99.90;;;;;;5007158;28;20222;-67
2021/11/17 11:04:46;;;;;;;2.13;1.90;;;6.00;99.90;;;;;;5010712;28;20214;-68
2021/11/17 11:07:17;;;;;;;2.60;1.88;;;6.00;99.90;;;;;;5010367;28;20230;-68
2021/11/17 11:09:47;;;;;;;2.20;2.00;;;6.00;99.90;;;;;;5011109;28;20736;-68
2021/11/17 11:12:17;;;;;;;2.70;2.15;;;6.00;99.90;;;;;;5010152;28;20248;-68
2021/11/17 11:14:53;;;;;;;2.38;2.05;;;5.90;99.90;;;;;;5010025;28;20567;-68
2021/11/17 11:17:26;;;;;;;2.30;2.10;;;5.90;99.90;;;;;;5011057;28;20259;-68
2021/11/17 11:20:31;;;;;;;2.83;2.33;;;5.80;99.90;;;;;;5011276;28;20615;-68
2021/11/17 11:23:21;;;;;;;2.53;1.80;;;5.80;99.90;;;;;;4990785;28;20214;-68
2021/11/17 11:26:15;;;;;;;2.25;2.00;;;5.80;99.90;;;;;;4991102;28;20214;-68
2021/11/17 11:28:50;;;;;;;3.22;2.10;;;5.80;99.90;;;;;;4991352;28;20203;-68
2021/11/17 11:31:40;;;;;;;2.92;2.72;;;5.80;99.90;;;;;;4990431;28;20694;-68
2021/11/17 11:34:33;;;;;;;1.65;1.55;;;5.80;99.90;;;;;;4981548;28;20274;-67
2021/11/17 11:37:04;;;;;;;1.60;1.50;;;5.90;99.90;;;;;;4968069;28;20219;-67
2021/11/17 11:39:44;;;;;;;5.45;2.10;;;5.90;99.90;;;;;;4991036;28;20659;-67
2021/11/17 11:42:20;;;;;;;1.67;1.58;;;5.90;99.90;;;;;;4990310;28;20223;-67
2021/11/17 11:44:49;;;;;;;2.17;1.98;;;5.90;99.90;;;;;;4989816;28;20209;-68
2021/11/17 11:47:55;;;;;;;3.00;1.50;;;5.90;99.90;;;;;;4990552;28;20611;-67
2021/11/17 11:50:58;;;;;;;1.67;1.58;;;5.90;99.90;;;;;;4990205;28;20206;-67
2021/11/17 11:54:06;;;;;;;2.50;2.10;;;5.90;99.90;;;;;;4990289;28;20206;-68
2021/11/17 11:56:48;;;;;;;1.98;1.77;;;6.00;99.90;;;;;;4990398;28;20262;-67
2021/11/17 11:59:18;;;;;;;3.75;2.10;;;6.00;99.90;;;;;;4990468;28;20207;-67
2021/11/17 12:01:45;;;;;;;2.55;1.60;;;6.00;99.90;;;;;;4990071;28;20333;-67
2021/11/17 12:04:16;;;;;;;3.28;1.52;;;6.00;99.90;;;;;;4990146;28;20214;-67
2021/11/17 12:06:50;;;;;;;2.10;1.90;;;6.00;99.90;;;;;;4990318;28;20281;-67
2021/11/17 12:09:28;;;;;;;2.10;1.90;;;6.00;99.90;;;;;;4990716;28;20199;-68
2021/11/17 12:11:59;;;;;;;4.05;1.55;;;6.00;99.90;;;;;;4990538;28;20194;-67
2021/11/17 12:14:40;;;;;;;2.25;1.92;;;6.00;99.90;;;;;;4989673;28;20262;-67
2021/11/17 12:17:09;;;;;;;1.95;1.80;;;6.00;99.90;;;;;;4990980;28;20230;-67
2021/11/17 12:19:41;;;;;;;2.03;1.50;;;5.90;99.90;;;;;;4990991;28;20210;-67
2021/11/17 12:22:12;;;;;;;2.35;1.90;;;5.90;99.90;;;;;;4990156;28;20227;-67
2021/11/17 12:24:41;;;;;;;2.50;2.05;;;5.80;99.90;;;;;;4989934;28;20207;-68
2021/11/17 12:27:13;;;;;;;1.85;1.75;;;5.80;99.90;;;;;;4990137;28;20223;-67
2021/11/17 12:29:47;;;;;;;2.55;2.30;;;5.70;99.90;;;;;;4990179;28;20203;-67
2021/11/17 12:32:19;;;;;;;2.70;1.70;;;5.70;99.90;;;;;;4989500;28;20202;-67
2021/11/17 12:34:56;;;;;;;2.80;2.50;;;5.70;99.90;;;;;;4990167;28;20684;-66
2021/11/17 12:37:27;;;;;;;2.30;2.10;;;5.70;99.90;;;;;;4989461;28;20237;-67
2021/11/17 12:39:57;;;;;;;2.22;1.95;;;5.70;99.90;;;;;;4990570;28;20213;-67
2021/11/17 12:42:30;;;;;;;2.97;2.13;;;5.80;99.90;;;;;;4989268;28;20737;-67
2021/11/17 12:44:58;;;;;;;2.13;1.85;;;5.80;99.90;;;;;;4990179;28;20645;-67
2021/11/17 12:47:29;;;;;;;2.70;2.10;;;5.70;99.90;;;;;;4989830;28;20713;-67
2021/11/17 12:49:59;;;;;;;2.20;1.80;;;5.70;99.90;;;;;;4990294;28;20199;-67
2021/11/17 12:52:35;;;;;;;2.33;2.00;;;5.70;99.90;;;;;;4989214;28;20199;-67
2021/11/17 12:55:07;;;;;;;2.47;2.28;;;5.70;99.90;;;;;;4989401;28;20211;-67
2021/11/17 12:57:41;;;;;;;2.10;1.92;;;5.70;99.90;;;;;;4990077;28;20266;-67
2021/11/17 13:00:35;;;;;;;2.20;2.00;;;5.80;99.90;;;;;;4989445;28;20207;-67
2021/11/17 13:03:04;;;;;;;2.28;2.08;;;5.80;99.90;;;;;;4989614;28;20227;-67
2021/11/17 13:05:34;;;;;;;2.00;1.52;;;5.90;99.90;;;;;;4989197;28;20226;-67
2021/11/17 13:08:10;;;;;;;1.88;1.65;;;5.90;99.90;;;;;;4990094;28;20234;-67
2021/11/17 13:10:40;;;;;;;1.70;1.60;;;5.90;99.90;;;;;;4990324;28;20721;-67
2021/11/17 13:13:16;;;;;;;1.98;1.77;;;5.90;99.90;;;;;;4989299;28;20195;-67
2021/11/17 13:15:54;;;;;;;1.60;1.50;;;5.90;99.90;;;;;;4989815;28;20213;-67
2021/11/17 13:18:31;;;;;;;1.70;1.50;;;5.90;99.90;;;;;;4989403;28;20227;-67
2021/11/17 13:21:15;;;;;;;1.60;1.50;;;5.90;99.90;;;;;;4993323;28;20214;-67
2021/11/17 13:23:46;;;;;;;2.33;1.50;;;5.90;99.90;;;;;;4993200;28;20230;-67
2021/11/17 13:26:30;;;;;;;2.47;2.00;;;5.80;99.90;;;;;;4993267;28;20215;-67
2021/11/17 13:29:18;;;;;;;1.83;1.67;;;5.80;99.90;;;;;;4992320;28;20663;-68
2021/11/17 13:31:46;;;;;;;2.42;1.85;;;5.80;99.90;;;;;;4993209;28;20210;-67
2021/11/17 13:36:45;;;;;;;2.10;1.80;;;5.80;99.90;;;;;;5222220;22;20726;-72
2021/11/17 13:39:13;;;;;;;2.65;2.20;;;5.80;99.90;;;;;;5052090;28;20201;-71
2021/11/17 13:41:43;;;;;;;2.15;1.95;;;5.80;99.90;;;;;;5052226;28;20243;-72
2021/11/17 13:44:12;;;;;;;2.00;1.80;;;5.80;99.90;;;;;;5052149;28;20657;-72
2021/11/17 13:46:50;;;;;;;2.28;2.05;;;5.80;99.90;;;;;;5053138;28;20589;-72
2021/11/17 13:49:17;;;;;;;1.30;1.20;;;5.80;99.90;;;;;;5053186;28;20571;-72
2021/11/17 13:51:44;;;;;;;2.97;1.80;;;5.80;99.90;;;;;;5052503;28;20227;-72
2021/11/17 13:54:11;;;;;;;2.10;1.90;;;5.70;99.90;;;;;;5052894;28;20684;-72
2021/11/17 13:56:39;;;;;;;1.88;1.67;;;5.70;99.90;;;;;;5052860;28;20225;-72
2021/11/17 13:59:07;;;;;;;2.10;1.90;;;5.70;99.90;;;;;;5052878;28;20775;-72
2021/11/17 14:01:35;;;;;;;2.45;2.25;;;5.70;99.90;;;;;;5052546;28;20212;-72
2021/11/17 14:04:02;;;;;;;2.63;2.10;;;5.70;99.90;;;;;;5052851;28;20197;-72
2021/11/17 14:06:29;;;;;;;3.65;2.20;;;5.70;99.90;;;;;;5052738;28;20316;-72
2021/11/17 14:08:56;;;;;;;3.83;2.30;;;5.70;99.90;;;;;;5052572;28;20668;-72
2021/11/17 14:11:23;;;;;;;2.85;2.05;;;5.70;99.90;;;;;;5052295;28;20197;-72
2021/11/17 14:13:49;;;;;;;2.90;2.25;;;5.70;99.90;;;;;;5052649;28;20209;-72
2021/11/17 14:16:18;;;;;;;2.38;2.17;;;5.70;99.90;;;;;;5052377;28;20243;-72
2021/11/17 14:18:50;;;;;;;2.28;2.08;;;5.70;99.90;;;;;;5052668;28;20205;-72
2021/11/17 14:21:17;;;;;;;2.72;2.05;;;5.70;99.90;;;;;;5052167;28;20205;-72
2021/11/17 14:23:44;;;;;;;2.85;2.15;;;5.80;99.90;;;;;;5052839;28;20229;-72
2021/11/17 14:26:15;;;;;;;2.40;2.20;;;5.80;99.90;;;;;;5052266;28;20616;-72
2021/11/17 14:28:48;;;;;;;3.17;2.60;;;5.80;99.90;;;;;;5052710;28;20248;-72
2021/11/17 14:31:20;;;;;;;2.65;2.40;;;5.80;99.90;;;;;;5051626;28;20548;-72
2021/11/17 14:33:56;;;;;;;2.83;2.45;;;5.80;99.90;;;;;;5052554;28;20259;-72
2021/11/17 14:36:24;;;;;;;3.80;3.00;;;5.80;99.90;;;;;;5051852;28;20243;-72
2021/11/17 14:38:52;;;;;;;2.95;2.50;;;5.80;99.90;;;;;;5052944;28;20621;-72
2021/11/17 14:41:19;;;;;;;2.25;2.05;;;5.90;99.90;;;;;;5051625;28;20208;-72
2021/11/17 14:43:46;;;;;;;2.80;2.47;;;5.90;99.90;;;;;;5052272;28;20217;-72
2021/11/17 14:46:15;;;;;;;3.35;2.80;;;5.90;99.90;;;;;;5051876;28;20210;-72
2021/11/17 14:48:42;;;;;;;3.05;2.40;;;5.80;99.90;;;;;;5051907;28;20209;-72
2021/11/17 14:51:12;;;;;;;2.45;2.05;;;5.80;99.90;;;;;;5051408;28;20203;-73
2021/11/17 14:53:40;;;;;;;2.90;2.55;;;5.90;99.90;;;;;;5051916;28;20206;-72
2021/11/17 14:56:07;;;;;;;3.58;2.70;;;5.80;99.90;;;;;;5051929;28;20205;-72
2021/11/17 14:58:34;;;;;;;3.28;2.95;;;5.80;99.90;;;;;;5051968;28;20197;-73
2021/11/17 15:01:03;;;;;;;3.35;2.78;;;5.70;99.90;;;;;;5051828;28;20296;-72
2021/11/17 15:03:30;;;;;;;4.78;2.42;;;5.80;99.90;;;;;;5051613;28;20221;-72
2021/11/17 15:05:57;;;;;;;3.42;2.38;;;5.80;99.90;;;;;;5051791;28;20211;-72
2021/11/17 15:08:25;;;;;;;3.35;3.00;;;5.90;99.90;;;;;;5051780;28;20592;-73
2021/11/17 15:10:52;;;;;;;2.85;2.65;;;5.90;99.90;;;;;;5051149;28;20609;-72
2021/11/17 15:13:19;;;;;;;3.10;2.47;;;5.90;99.90;;;;;;5051612;28;20197;-72
2021/11/17 15:15:48;;;;;;;3.65;2.35;;;5.90;99.90;;;;;;5050991;28;20696;-73
2021/11/17 15:18:20;;;;;;;3.33;2.70;;;5.80;99.90;;;;;;5041588;28;20225;-72
2021/11/17 15:20:47;;;;;;;5.05;2.60;;;5.80;99.90;;;;;;5050112;28;20463;-72
2021/11/17 15:23:15;;;;;;;3.58;2.88;;;5.80;99.90;;;;;;5049618;28;20639;-72
2021/11/17 15:25:44;;;;;;;3.45;2.50;;;5.80;99.90;;;;;;5050021;28;20205;-72
2021/11/17 15:28:17;;;;;;;3.28;2.80;;;5.80;99.90;;;;;;5049991;28;20304;-73
2021/11/17 15:30:47;;;;;;;2.88;2.50;;;5.80;99.90;;;;;;5050139;28;20292;-73
2021/11/17 15:33:14;;;;;;;3.85;2.90;;;5.80;99.90;;;;;;5049204;28;20201;-72
2021/11/17 15:35:41;;;;;;;3.80;3.40;;;5.80;99.90;;;;;;5050084;28;20205;-72
2021/11/17 15:38:09;;;;;;;3.60;3.05;;;5.80;99.90;;;;;;5049673;28;20228;-72
2021/11/17 15:40:38;;;;;;;5.00;3.63;;;5.80;99.90;;;;;;5049684;28;20201;-73
2021/11/17 15:43:07;;;;;;;7.68;4.05;;;5.80;99.90;;;;;;5048938;28;20221;-72
2021/11/17 15:45:35;;;;;;;4.13;3.00;;;5.80;99.90;;;;;;5049767;28;20225;-72
2021/11/17 15:48:02;;;;;;;2.95;2.55;;;5.80;99.90;;;;;;5049836;28;20221;-73
2021/11/17 15:50:31;;;;;;;4.30;3.22;;;5.80;99.90;;;;;;5049392;28;20205;-72
2021/11/17 15:52:58;;;;;;;8.98;3.20;;;5.80;99.90;;;;;;5049656;28;20197;-72
2021/11/17 15:55:26;;;;;;;2.95;2.67;;;5.80;99.90;;;;;;5049195;28;20197;-72
2021/11/17 15:57:53;;;;;;;4.60;4.10;;;5.80;99.90;;;;;;5049718;28;20229;-72
2021/11/17 16:00:24;;;;;;;7.18;6.07;;;5.80;99.90;;;;;;5049892;28;20204;-72
2021/11/17 16:02:51;;;;;;;6.13;5.53;;;5.80;99.90;;;;;;5048679;28;20229;-73
2021/11/17 16:05:19;;;;;;;5.55;3.75;;;5.80;99.90;;;;;;5048236;28;20208;-72
2021/11/17 16:07:46;;;;;;;4.57;3.20;;;5.80;99.90;;;;;;5048326;28;20530;-72
2021/11/17 16:10:16;;;;;;;2.97;2.67;;;5.80;99.90;;;;;;5042219;28;20227;-72
2021/11/17 16:12:43;;;;;;;3.25;2.70;;;5.70;99.90;;;;;;5068002;28;20686;-72